sensor_id;sensor_type;location;lat;lon;timestamp;pressure;altitude;pressure_sealevel;temperature;humidity
65832;BME280;52593;42.648;23.332;2022-11-20T00:01:04;93844.41;;;16.13;60.09
65832;BME280;52593;42.648;23.332;2022-11-20T00:03:29;93848.59;;;16.09;60.79
65832;BME280;52593;42.648;23.332;2022-11-20T00:06:01;93857.16;;;15.94;61.84
65832;BME280;52593;42.648;23.332;2022-11-20T00:08:27;93871.84;;;15.44;67.17
65832;BME280;52593;42.648;23.332;2022-11-20T00:10:52;93839.00;;;15.35;65.95
65832;BME280;52593;42.648;23.332;2022-11-20T00:13:18;93842.78;;;15.58;64.20
65832;BME280;52593;42.648;23.332;2022-11-20T00:15:43;93829.06;;;15.71;62.97
65832;BME280;52593;42.648;23.332;2022-11-20T00:18:08;93847.19;;;16.18;60.66
65832;BME280;52593;42.648;23.332;2022-11-20T00:20:34;93838.63;;;16.21;61.01
65832;BME280;52593;42.648;23.332;2022-11-20T00:22:59;93834.97;;;16.27;60.00
65832;BME280;52593;42.648;23.332;2022-11-20T00:25:24;93813.25;;;16.34;59.99
65832;BME280;52593;42.648;23.332;2022-11-20T00:27:50;93807.56;;;16.71;58.76
65832;BME280;52593;42.648;23.332;2022-11-20T00:30:15;93811.81;;;16.55;58.45
65832;BME280;52593;42.648;23.332;2022-11-20T00:32:41;93808.75;;;16.63;58.12
65832;BME280;52593;42.648;23.332;2022-11-20T00:35:06;93801.75;;;16.79;56.65
65832;BME280;52593;42.648;23.332;2022-11-20T00:37:32;93811.84;;;16.84;57.01
65832;BME280;52593;42.648;23.332;2022-11-20T00:39:57;93810.91;;;16.90;56.37
65832;BME280;52593;42.648;23.332;2022-11-20T00:42:23;93825.94;;;16.98;55.70
65832;BME280;52593;42.648;23.332;2022-11-20T00:44:48;93822.78;;;17.18;54.74
65832;BME280;52593;42.648;23.332;2022-11-20T00:47:13;93855.13;;;17.13;54.61
65832;BME280;52593;42.648;23.332;2022-11-20T00:49:39;93827.06;;;17.14;54.25
65832;BME280;52593;42.648;23.332;2022-11-20T00:52:04;93812.09;;;17.23;53.34
65832;BME280;52593;42.648;23.332;2022-11-20T00:54:29;93837.06;;;17.30;53.05
65832;BME280;52593;42.648;23.332;2022-11-20T00:56:55;93849.56;;;17.19;54.07
65832;BME280;52593;42.648;23.332;2022-11-20T00:59:20;93834.75;;;17.51;52.18
65832;BME280;52593;42.648;23.332;2022-11-20T01:01:46;93815.44;;;17.30;52.88
65832;BME280;52593;42.648;23.332;2022-11-20T01:04:11;93810.13;;;17.35;52.82
65832;BME280;52593;42.648;23.332;2022-11-20T01:06:38;93840.75;;;17.24;53.14
65832;BME280;52593;42.648;23.332;2022-11-20T01:09:10;93809.06;;;17.07;54.23
65832;BME280;52593;42.648;23.332;2022-11-20T01:11:38;93815.13;;;16.98;54.61
65832;BME280;52593;42.648;23.332;2022-11-20T01:14:07;93810.13;;;17.35;53.01
65832;BME280;52593;42.648;23.332;2022-11-20T01:16:37;93812.22;;;17.16;53.86
65832;BME280;52593;42.648;23.332;2022-11-20T01:19:05;93802.03;;;17.35;52.52
65832;BME280;52593;42.648;23.332;2022-11-20T01:21:33;93802.34;;;17.39;52.81
65832;BME280;52593;42.648;23.332;2022-11-20T01:24:00;93786.13;;;17.56;52.09
65832;BME280;52593;42.648;23.332;2022-11-20T01:26:34;93810.28;;;17.28;53.95
65832;BME280;52593;42.648;23.332;2022-11-20T01:29:00;93798.22;;;17.36;53.20
65832;BME280;52593;42.648;23.332;2022-11-20T01:31:28;93786.59;;;17.36;53.19
65832;BME280;52593;42.648;23.332;2022-11-20T01:33:56;93801.03;;;17.24;53.91
65832;BME280;52593;42.648;23.332;2022-11-20T01:36:26;93783.88;;;17.19;54.00
65832;BME280;52593;42.648;23.332;2022-11-20T01:38:53;93786.34;;;16.91;55.30
65832;BME280;52593;42.648;23.332;2022-11-20T01:41:19;93788.34;;;16.96;54.47
65832;BME280;52593;42.648;23.332;2022-11-20T01:44:04;93783.31;;;16.88;55.20
65832;BME280;52593;42.648;23.332;2022-11-20T01:46:32;93768.81;;;16.65;55.66
65832;BME280;52593;42.648;23.332;2022-11-20T01:51:43;93771.97;;;16.74;55.04
65832;BME280;52593;42.648;23.332;2022-11-20T01:54:14;93759.91;;;16.93;54.30
65832;BME280;52593;42.648;23.332;2022-11-20T01:56:44;93757.47;;;16.80;55.04
65832;BME280;52593;42.648;23.332;2022-11-20T01:59:12;93777.00;;;16.70;55.31
65832;BME280;52593;42.648;23.332;2022-11-20T02:01:38;93774.59;;;16.57;55.62
65832;BME280;52593;42.648;23.332;2022-11-20T02:04:04;93788.69;;;16.59;55.48
65832;BME280;52593;42.648;23.332;2022-11-20T02:06:40;93781.69;;;16.46;56.37
65832;BME280;52593;42.648;23.332;2022-11-20T02:09:09;93800.69;;;16.28;57.21
65832;BME280;52593;42.648;23.332;2022-11-20T02:11:34;93781.78;;;16.39;56.27
65832;BME280;52593;42.648;23.332;2022-11-20T02:14:00;93789.31;;;16.37;56.47
65832;BME280;52593;42.648;23.332;2022-11-20T02:16:28;93796.84;;;16.23;56.76
65832;BME280;52593;42.648;23.332;2022-11-20T02:18:56;93784.59;;;16.45;55.92
65832;BME280;52593;42.648;23.332;2022-11-20T02:22:04;93791.75;;;16.51;55.79
65832;BME280;52593;42.648;23.332;2022-11-20T02:24:33;93798.31;;;16.55;55.23
65832;BME280;52593;42.648;23.332;2022-11-20T02:27:10;93803.91;;;16.77;54.56
65832;BME280;52593;42.648;23.332;2022-11-20T02:29:48;93771.78;;;16.52;55.56
65832;BME280;52593;42.648;23.332;2022-11-20T02:32:25;93786.22;;;16.57;55.39
65832;BME280;52593;42.648;23.332;2022-11-20T02:34:51;93786.38;;;16.51;55.92
65832;BME280;52593;42.648;23.332;2022-11-20T02:37:17;93789.22;;;16.73;54.92
65832;BME280;52593;42.648;23.332;2022-11-20T02:39:45;93787.31;;;16.73;55.10
65832;BME280;52593;42.648;23.332;2022-11-20T02:42:11;93784.75;;;16.79;54.84
65832;BME280;52593;42.648;23.332;2022-11-20T02:44:36;93801.59;;;16.57;55.89
65832;BME280;52593;42.648;23.332;2022-11-20T02:47:02;93807.09;;;16.62;55.72
65832;BME280;52593;42.648;23.332;2022-11-20T02:49:27;93811.00;;;16.54;57.02
65832;BME280;52593;42.648;23.332;2022-11-20T02:51:52;93815.69;;;16.47;57.02
65832;BME280;52593;42.648;23.332;2022-11-20T02:54:18;93819.34;;;16.53;56.96
65832;BME280;52593;42.648;23.332;2022-11-20T02:56:43;93820.38;;;16.64;57.53
65832;BME280;52593;42.648;23.332;2022-11-20T02:59:09;93815.28;;;16.67;57.56
65832;BME280;52593;42.648;23.332;2022-11-20T03:01:35;93800.72;;;16.80;57.01
65832;BME280;52593;42.648;23.332;2022-11-20T03:04:00;93820.22;;;16.70;57.75
65832;BME280;52593;42.648;23.332;2022-11-20T03:06:26;93839.38;;;16.69;57.53
65832;BME280;52593;42.648;23.332;2022-11-20T03:08:51;93840.78;;;16.71;57.74
65832;BME280;52593;42.648;23.332;2022-11-20T03:11:17;93841.84;;;16.70;57.86
65832;BME280;52593;42.648;23.332;2022-11-20T03:13:42;93819.25;;;16.76;57.50
65832;BME280;52593;42.648;23.332;2022-11-20T03:16:08;93814.63;;;16.60;58.02
65832;BME280;52593;42.648;23.332;2022-11-20T03:18:34;93809.81;;;16.50;58.50
65832;BME280;52593;42.648;23.332;2022-11-20T03:21:00;93829.88;;;16.66;57.84
65832;BME280;52593;42.648;23.332;2022-11-20T03:23:25;93819.56;;;16.63;57.53
65832;BME280;52593;42.648;23.332;2022-11-20T03:25:51;93811.03;;;16.83;56.33
65832;BME280;52593;42.648;23.332;2022-11-20T03:28:16;93807.88;;;16.74;57.12
65832;BME280;52593;42.648;23.332;2022-11-20T03:30:41;93824.66;;;16.76;57.36
65832;BME280;52593;42.648;23.332;2022-11-20T03:33:07;93828.56;;;16.69;57.42
65832;BME280;52593;42.648;23.332;2022-11-20T03:35:32;93833.50;;;16.72;57.71
65832;BME280;52593;42.648;23.332;2022-11-20T03:37:58;93829.19;;;16.59;57.93
65832;BME280;52593;42.648;23.332;2022-11-20T03:40:23;93820.28;;;16.58;58.13
65832;BME280;52593;42.648;23.332;2022-11-20T03:42:48;93830.28;;;16.46;58.44
65832;BME280;52593;42.648;23.332;2022-11-20T03:45:16;93819.94;;;16.43;58.90
65832;BME280;52593;42.648;23.332;2022-11-20T03:47:42;93841.41;;;16.50;58.42
65832;BME280;52593;42.648;23.332;2022-11-20T03:50:08;93830.38;;;16.63;57.52
65832;BME280;52593;42.648;23.332;2022-11-20T03:52:34;93820.03;;;16.60;57.37
65832;BME280;52593;42.648;23.332;2022-11-20T03:54:59;93835.31;;;16.54;57.80
65832;BME280;52593;42.648;23.332;2022-11-20T03:57:25;93845.47;;;16.64;57.46
65832;BME280;52593;42.648;23.332;2022-11-20T03:59:50;93836.00;;;16.62;56.78
65832;BME280;52593;42.648;23.332;2022-11-20T04:02:15;93820.75;;;16.55;57.59
65832;BME280;52593;42.648;23.332;2022-11-20T04:04:41;93821.19;;;16.64;57.18
65832;BME280;52593;42.648;23.332;2022-11-20T04:07:06;93836.00;;;16.62;57.24
65832;BME280;52593;42.648;23.332;2022-11-20T04:09:31;93857.84;;;16.60;57.31
65832;BME280;52593;42.648;23.332;2022-11-20T04:11:57;93838.09;;;16.59;57.03
65832;BME280;52593;42.648;23.332;2022-11-20T04:14:22;93841.16;;;16.63;56.43
65832;BME280;52593;42.648;23.332;2022-11-20T04:16:48;93829.56;;;16.51;57.18
65832;BME280;52593;42.648;23.332;2022-11-20T04:19:15;93837.44;;;16.52;57.22
65832;BME280;52593;42.648;23.332;2022-11-20T04:21:42;93852.31;;;16.55;57.24
65832;BME280;52593;42.648;23.332;2022-11-20T04:24:07;93848.94;;;16.48;57.56
65832;BME280;52593;42.648;23.332;2022-11-20T04:26:34;93855.41;;;16.47;57.41
65832;BME280;52593;42.648;23.332;2022-11-20T04:28:59;93869.22;;;16.50;56.91
65832;BME280;52593;42.648;23.332;2022-11-20T04:31:31;93866.19;;;16.58;57.49
65832;BME280;52593;42.648;23.332;2022-11-20T04:34:02;93876.06;;;16.53;58.29
65832;BME280;52593;42.648;23.332;2022-11-20T04:36:28;93863.97;;;16.44;58.62
65832;BME280;52593;42.648;23.332;2022-11-20T04:38:56;93855.50;;;16.40;59.15
65832;BME280;52593;42.648;23.332;2022-11-20T04:41:26;93865.03;;;16.31;59.08
65832;BME280;52593;42.648;23.332;2022-11-20T04:43:57;93863.88;;;16.27;59.61
65832;BME280;52593;42.648;23.332;2022-11-20T04:46:25;93875.47;;;16.15;60.19
65832;BME280;52593;42.648;23.332;2022-11-20T04:48:51;93873.25;;;16.12;60.08
65832;BME280;52593;42.648;23.332;2022-11-20T04:51:16;93856.47;;;16.10;60.04
65832;BME280;52593;42.648;23.332;2022-11-20T04:53:42;93876.06;;;16.17;60.31
65832;BME280;52593;42.648;23.332;2022-11-20T04:56:09;93849.41;;;16.09;60.38
65832;BME280;52593;42.648;23.332;2022-11-20T04:58:35;93861.53;;;16.07;60.04
65832;BME280;52593;42.648;23.332;2022-11-20T05:01:04;93850.81;;;16.00;60.42
65832;BME280;52593;42.648;23.332;2022-11-20T05:03:30;93847.19;;;16.06;59.54
65832;BME280;52593;42.648;23.332;2022-11-20T05:05:55;93839.94;;;15.95;59.95
65832;BME280;52593;42.648;23.332;2022-11-20T05:08:21;93854.13;;;15.90;60.41
65832;BME280;52593;42.648;23.332;2022-11-20T05:10:47;93860.09;;;15.92;60.57
65832;BME280;52593;42.648;23.332;2022-11-20T05:13:12;93850.69;;;15.83;60.89
65832;BME280;52593;42.648;23.332;2022-11-20T05:15:38;93834.75;;;15.81;60.75
65832;BME280;52593;42.648;23.332;2022-11-20T05:18:03;93834.75;;;15.93;60.48
65832;BME280;52593;42.648;23.332;2022-11-20T05:20:28;93834.75;;;15.93;60.45
65832;BME280;52593;42.648;23.332;2022-11-20T05:22:57;93834.41;;;15.90;60.62
65832;BME280;52593;42.648;23.332;2022-11-20T05:25:22;93824.78;;;15.94;61.46
65832;BME280;52593;42.648;23.332;2022-11-20T05:27:48;93801.44;;;15.99;60.70
65832;BME280;52593;42.648;23.332;2022-11-20T05:30:13;93816.34;;;15.90;61.85
65832;BME280;52593;42.648;23.332;2022-11-20T05:32:39;93802.53;;;15.86;61.65
65832;BME280;52593;42.648;23.332;2022-11-20T05:35:04;93801.91;;;15.96;61.09
65832;BME280;52593;42.648;23.332;2022-11-20T05:37:30;93821.63;;;15.97;61.05
65832;BME280;52593;42.648;23.332;2022-11-20T05:39:55;93818.34;;;15.83;61.62
65832;BME280;52593;42.648;23.332;2022-11-20T05:42:21;93805.44;;;15.85;61.50
65832;BME280;52593;42.648;23.332;2022-11-20T05:45:02;93799.78;;;15.98;60.84
65832;BME280;52593;42.648;23.332;2022-11-20T05:47:31;93801.44;;;15.99;60.38
65832;BME280;52593;42.648;23.332;2022-11-20T05:49:57;93794.16;;;16.00;60.39
65832;BME280;52593;42.648;23.332;2022-11-20T05:52:23;93786.78;;;15.95;60.31
65832;BME280;52593;42.648;23.332;2022-11-20T05:54:48;93800.41;;;16.00;59.95
65832;BME280;52593;42.648;23.332;2022-11-20T05:57:14;93808.50;;;16.00;59.20
65832;BME280;52593;42.648;23.332;2022-11-20T05:59:39;93807.31;;;15.96;59.19
65832;BME280;52593;42.648;23.332;2022-11-20T06:02:04;93813.53;;;15.97;59.09
65832;BME280;52593;42.648;23.332;2022-11-20T06:04:30;93825.38;;;16.19;58.63
65832;BME280;52593;42.648;23.332;2022-11-20T06:06:55;93813.53;;;16.09;59.42
65832;BME280;52593;42.648;23.332;2022-11-20T06:09:21;93829.72;;;16.09;59.14
65832;BME280;52593;42.648;23.332;2022-11-20T06:11:46;93819.97;;;16.19;58.70
65832;BME280;52593;42.648;23.332;2022-11-20T06:14:11;93813.88;;;16.24;58.38
65832;BME280;52593;42.648;23.332;2022-11-20T06:16:37;93831.81;;;16.18;58.89
65832;BME280;52593;42.648;23.332;2022-11-20T06:19:02;93812.81;;;16.25;58.59
65832;BME280;52593;42.648;23.332;2022-11-20T06:21:28;93828.66;;;16.21;59.34
65832;BME280;52593;42.648;23.332;2022-11-20T06:23:53;93827.94;;;16.26;58.97
65832;BME280;52593;42.648;23.332;2022-11-20T06:26:22;93837.53;;;16.34;58.75
65832;BME280;52593;42.648;23.332;2022-11-20T06:28:48;93844.13;;;16.38;58.34
65832;BME280;52593;42.648;23.332;2022-11-20T06:31:17;93848.94;;;16.36;59.39
65832;BME280;52593;42.648;23.332;2022-11-20T06:33:43;93859.63;;;16.31;59.05
65832;BME280;52593;42.648;23.332;2022-11-20T06:36:11;93843.09;;;16.27;59.13
65832;BME280;52593;42.648;23.332;2022-11-20T06:38:37;93851.88;;;16.34;58.69
65832;BME280;52593;42.648;23.332;2022-11-20T06:41:04;93855.75;;;16.38;57.98
65832;BME280;52593;42.648;23.332;2022-11-20T06:43:30;93860.78;;;16.47;57.21
65832;BME280;52593;42.648;23.332;2022-11-20T06:45:57;93867.84;;;16.36;58.11
65832;BME280;52593;42.648;23.332;2022-11-20T06:48:24;93852.22;;;16.50;57.45
65832;BME280;52593;42.648;23.332;2022-11-20T06:50:50;93862.88;;;16.56;56.60
65832;BME280;52593;42.648;23.332;2022-11-20T06:53:16;93870.50;;;16.71;55.46
65832;BME280;52593;42.648;23.332;2022-11-20T06:55:42;93858.41;;;16.74;55.25
65832;BME280;52593;42.648;23.332;2022-11-20T06:58:09;93855.66;;;16.86;54.99
65832;BME280;52593;42.648;23.332;2022-11-20T07:00:34;93861.38;;;17.01;54.54
65832;BME280;52593;42.648;23.332;2022-11-20T07:03:06;93871.72;;;17.04;54.17
65832;BME280;52593;42.648;23.332;2022-11-20T07:05:32;93881.22;;;17.07;54.52
65832;BME280;52593;42.648;23.332;2022-11-20T07:07:57;93878.19;;;17.03;54.91
65832;BME280;52593;42.648;23.332;2022-11-20T07:10:23;93872.69;;;16.98;55.86
65832;BME280;52593;42.648;23.332;2022-11-20T07:12:50;93866.84;;;16.89;55.82
65832;BME280;52593;42.648;23.332;2022-11-20T07:15:16;93872.81;;;16.80;56.31
65832;BME280;52593;42.648;23.332;2022-11-20T07:17:42;93866.16;;;16.70;56.89
65832;BME280;52593;42.648;23.332;2022-11-20T07:20:07;93872.03;;;16.67;57.16
65832;BME280;52593;42.648;23.332;2022-11-20T07:22:33;93888.94;;;16.74;56.05
65832;BME280;52593;42.648;23.332;2022-11-20T07:24:58;93876.38;;;16.68;56.53
65832;BME280;52593;42.648;23.332;2022-11-20T07:27:23;93888.59;;;16.71;56.04
65832;BME280;52593;42.648;23.332;2022-11-20T07:29:49;93884.09;;;16.76;55.68
65832;BME280;52593;42.648;23.332;2022-11-20T07:32:14;93879.66;;;16.70;56.06
65832;BME280;52593;42.648;23.332;2022-11-20T07:34:40;93878.03;;;16.69;56.93
65832;BME280;52593;42.648;23.332;2022-11-20T07:37:05;93888.25;;;16.55;57.52
65832;BME280;52593;42.648;23.332;2022-11-20T07:39:30;93875.56;;;16.56;57.47
65832;BME280;52593;42.648;23.332;2022-11-20T07:41:56;93877.09;;;16.52;58.11
65832;BME280;52593;42.648;23.332;2022-11-20T07:44:21;93876.38;;;16.56;58.67
65832;BME280;52593;42.648;23.332;2022-11-20T07:46:47;93864.19;;;16.54;58.25
65832;BME280;52593;42.648;23.332;2022-11-20T07:49:12;93883.69;;;16.56;56.93
65832;BME280;52593;42.648;23.332;2022-11-20T07:51:37;93874.63;;;16.50;58.84
65832;BME280;52593;42.648;23.332;2022-11-20T07:54:03;93880.16;;;16.55;57.53
65832;BME280;52593;42.648;23.332;2022-11-20T07:56:28;93896.94;;;16.46;59.33
65832;BME280;52593;42.648;23.332;2022-11-20T07:58:54;93899.19;;;16.25;61.81
65832;BME280;52593;42.648;23.332;2022-11-20T08:01:19;93917.94;;;16.20;62.61
65832;BME280;52593;42.648;23.332;2022-11-20T08:03:44;93911.88;;;16.13;63.02
65832;BME280;52593;42.648;23.332;2022-11-20T08:06:10;93891.22;;;16.07;63.68
65832;BME280;52593;42.648;23.332;2022-11-20T08:08:35;93898.22;;;16.08;63.53
65832;BME280;52593;42.648;23.332;2022-11-20T08:11:01;93890.75;;;16.10;62.90
65832;BME280;52593;42.648;23.332;2022-11-20T08:13:45;93910.09;;;16.18;62.40
65832;BME280;52593;42.648;23.332;2022-11-20T08:16:29;93907.53;;;16.23;62.69
65832;BME280;52593;42.648;23.332;2022-11-20T08:18:54;93883.09;;;16.18;63.52
65832;BME280;52593;42.648;23.332;2022-11-20T08:21:20;93902.94;;;16.24;63.65
65832;BME280;52593;42.648;23.332;2022-11-20T08:23:45;93902.09;;;16.35;62.79
65832;BME280;52593;42.648;23.332;2022-11-20T08:26:10;93921.25;;;16.34;62.26
65832;BME280;52593;42.648;23.332;2022-11-20T08:28:36;93928.53;;;16.33;62.80
65832;BME280;52593;42.648;23.332;2022-11-20T08:31:02;93929.13;;;16.47;61.68
65832;BME280;52593;42.648;23.332;2022-11-20T08:33:28;93904.34;;;16.38;61.85
65832;BME280;52593;42.648;23.332;2022-11-20T08:36:00;93913.38;;;16.68;61.09
65832;BME280;52593;42.648;23.332;2022-11-20T08:38:26;93902.44;;;16.74;61.00
65832;BME280;52593;42.648;23.332;2022-11-20T08:40:51;93934.63;;;16.64;62.41
65832;BME280;52593;42.648;23.332;2022-11-20T08:43:35;93933.09;;;16.56;62.04
65832;BME280;52593;42.648;23.332;2022-11-20T08:46:00;93942.84;;;16.69;59.58
65832;BME280;52593;42.648;23.332;2022-11-20T08:48:27;93947.19;;;16.70;59.93
65832;BME280;52593;42.648;23.332;2022-11-20T08:50:52;93950.47;;;16.49;64.30
65832;BME280;52593;42.648;23.332;2022-11-20T08:53:18;93954.00;;;16.26;66.23
65832;BME280;52593;42.648;23.332;2022-11-20T08:55:43;93951.75;;;16.22;63.73
65832;BME280;52593;42.648;23.332;2022-11-20T08:58:09;93941.31;;;16.14;66.28
65832;BME280;52593;42.648;23.332;2022-11-20T09:00:34;93936.63;;;16.21;66.19
65832;BME280;52593;42.648;23.332;2022-11-20T09:03:00;93925.59;;;16.23;65.32
65832;BME280;52593;42.648;23.332;2022-11-20T09:05:26;93945.31;;;16.23;67.20
65832;BME280;52593;42.648;23.332;2022-11-20T09:07:52;93942.84;;;16.22;67.95
65832;BME280;52593;42.648;23.332;2022-11-20T09:10:17;93952.44;;;15.94;69.76
65832;BME280;52593;42.648;23.332;2022-11-20T09:12:42;93954.28;;;15.63;72.03
65832;BME280;52593;42.648;23.332;2022-11-20T09:15:08;93969.22;;;15.17;74.84
65832;BME280;52593;42.648;23.332;2022-11-20T09:17:34;93948.88;;;14.84;74.25
65832;BME280;52593;42.648;23.332;2022-11-20T09:19:59;93960.84;;;14.88;71.48
65832;BME280;52593;42.648;23.332;2022-11-20T09:22:24;93964.19;;;14.65;70.79
65832;BME280;52593;42.648;23.332;2022-11-20T09:24:50;93967.81;;;14.52;73.64
65832;BME280;52593;42.648;23.332;2022-11-20T09:27:15;93965.91;;;14.34;76.90
65832;BME280;52593;42.648;23.332;2022-11-20T09:29:46;93946.31;;;14.27;78.29
65832;BME280;52593;42.648;23.332;2022-11-20T09:32:11;93947.00;;;14.41;79.71
65832;BME280;52593;42.648;23.332;2022-11-20T09:34:36;93953.34;;;14.53;79.84
65832;BME280;52593;42.648;23.332;2022-11-20T09:37:02;93942.44;;;14.67;80.33
65832;BME280;52593;42.648;23.332;2022-11-20T09:39:27;93917.75;;;14.70;76.28
65832;BME280;52593;42.648;23.332;2022-11-20T09:42:15;93921.06;;;14.90;78.12
65832;BME280;52593;42.648;23.332;2022-11-20T09:45:54;93917.22;;;14.98;83.31
65832;BME280;52593;42.648;23.332;2022-11-20T09:48:08;93923.50;;;14.92;81.03
65832;BME280;52593;42.648;23.332;2022-11-20T09:50:52;93925.50;;;15.15;82.54
65832;BME280;52593;42.648;23.332;2022-11-20T09:53:37;93900.63;;;15.13;86.80
65832;BME280;52593;42.648;23.332;2022-11-20T09:56:10;93901.84;;;15.17;86.85
65832;BME280;52593;42.648;23.332;2022-11-20T10:01:15;93914.78;;;15.69;88.21
65832;BME280;52593;42.648;23.332;2022-11-20T10:06:17;93904.22;;;16.21;80.34
65832;BME280;52593;42.648;23.332;2022-11-20T10:08:58;93896.38;;;16.32;79.91
65832;BME280;52593;42.648;23.332;2022-11-20T10:24:58;93881.91;;;16.26;73.80
65832;BME280;52593;42.648;23.332;2022-11-20T10:30:11;93880.63;;;15.39;78.41
65832;BME280;52593;42.648;23.332;2022-11-20T10:32:43;93885.22;;;15.50;77.68
65832;BME280;52593;42.648;23.332;2022-11-20T10:37:56;93883.66;;;15.43;78.09
65832;BME280;52593;42.648;23.332;2022-11-20T10:40:42;93894.09;;;15.39;78.81
65832;BME280;52593;42.648;23.332;2022-11-20T10:50:40;93880.78;;;14.95;79.18
65832;BME280;52593;42.648;23.332;2022-11-20T10:56:07;93917.44;;;14.96;82.04
65832;BME280;52593;42.648;23.332;2022-11-20T10:58:55;93917.59;;;14.83;83.99
65832;BME280;52593;42.648;23.332;2022-11-20T11:01:24;93908.78;;;14.76;84.71
65832;BME280;52593;42.648;23.332;2022-11-20T11:03:52;93930.03;;;14.66;86.21
65832;BME280;52593;42.648;23.332;2022-11-20T11:06:42;93926.91;;;14.69;85.50
65832;BME280;52593;42.648;23.332;2022-11-20T11:09:16;93943.94;;;14.62;82.37
65832;BME280;52593;42.648;23.332;2022-11-20T11:11:44;93963.78;;;14.43;85.10
65832;BME280;52593;42.648;23.332;2022-11-20T11:14:14;94000.63;;;14.17;94.72
65832;BME280;52593;42.648;23.332;2022-11-20T11:16:54;93968.81;;;13.50;87.90
65832;BME280;52593;42.648;23.332;2022-11-20T11:19:20;93975.03;;;13.44;88.83
65832;BME280;52593;42.648;23.332;2022-11-20T11:21:54;93975.16;;;13.17;85.16
65832;BME280;52593;42.648;23.332;2022-11-20T11:24:28;93981.25;;;12.86;82.90
65832;BME280;52593;42.648;23.332;2022-11-20T11:27:01;93948.69;;;12.76;82.77
65832;BME280;52593;42.648;23.332;2022-11-20T11:29:32;93942.09;;;12.58;80.23
65832;BME280;52593;42.648;23.332;2022-11-20T11:32:13;93953.50;;;12.40;82.83
65832;BME280;52593;42.648;23.332;2022-11-20T11:34:39;93945.28;;;12.28;83.90
65832;BME280;52593;42.648;23.332;2022-11-20T11:37:12;93936.78;;;12.38;77.82
65832;BME280;52593;42.648;23.332;2022-11-20T11:39:42;93935.78;;;12.26;80.58
65832;BME280;52593;42.648;23.332;2022-11-20T11:42:12;93912.25;;;12.28;78.27
65832;BME280;52593;42.648;23.332;2022-11-20T11:44:44;93917.81;;;12.26;78.96
65832;BME280;52593;42.648;23.332;2022-11-20T11:47:58;93905.84;;;12.29;79.24
65832;BME280;52593;42.648;23.332;2022-11-20T11:50:29;93927.75;;;12.19;81.17
65832;BME280;52593;42.648;23.332;2022-11-20T11:53:13;93909.56;;;12.35;79.99
65832;BME280;52593;42.648;23.332;2022-11-20T11:55:46;93909.13;;;12.44;78.68
65832;BME280;52593;42.648;23.332;2022-11-20T12:00:41;93902.31;;;12.42;80.76
65832;BME280;52593;42.648;23.332;2022-11-20T12:03:58;93893.78;;;12.65;77.27
65832;BME280;52593;42.648;23.332;2022-11-20T12:06:15;93867.84;;;12.45;81.18
65832;BME280;52593;42.648;23.332;2022-11-20T12:08:55;93868.84;;;12.58;78.48
65832;BME280;52593;42.648;23.332;2022-11-20T12:11:49;93873.00;;;12.47;77.31
65832;BME280;52593;42.648;23.332;2022-11-20T12:14:29;93907.06;;;12.40;77.65
65832;BME280;52593;42.648;23.332;2022-11-20T12:16:55;93896.81;;;12.17;80.18
65832;BME280;52593;42.648;23.332;2022-11-20T12:19:22;93917.25;;;11.98;83.58
65832;BME280;52593;42.648;23.332;2022-11-20T12:24:39;93911.88;;;12.18;78.24
65832;BME280;52593;42.648;23.332;2022-11-20T12:30:10;93919.09;;;11.70;83.33
65832;BME280;52593;42.648;23.332;2022-11-20T12:40:45;93860.94;;;12.04;79.53
65832;BME280;52593;42.648;23.332;2022-11-20T12:43:26;93818.03;;;12.04;82.34
65832;BME280;52593;42.648;23.332;2022-11-20T12:46:26;93812.28;;;11.94;82.65
65832;BME280;52593;42.648;23.332;2022-11-20T12:49:18;93795.56;;;12.51;75.09
65832;BME280;52593;42.648;23.332;2022-11-20T13:00:00;93833.03;;;12.77;79.51
65832;BME280;52593;42.648;23.332;2022-11-20T13:05:33;93854.84;;;12.36;84.17
65832;BME280;52593;42.648;23.332;2022-11-20T13:08:02;93841.13;;;12.12;84.23
65832;BME280;52593;42.648;23.332;2022-11-20T13:13:19;93875.38;;;11.90;88.77
65832;BME280;52593;42.648;23.332;2022-11-20T13:18:21;93884.25;;;11.70;89.62
65832;BME280;52593;42.648;23.332;2022-11-20T13:20:47;93871.28;;;11.67;90.98
65832;BME280;52593;42.648;23.332;2022-11-20T13:23:25;93846.13;;;11.55;93.42
65832;BME280;52593;42.648;23.332;2022-11-20T13:25:51;93871.03;;;11.42;94.40
65832;BME280;52593;42.648;23.332;2022-11-20T13:30:53;93907.53;;;11.56;91.96
65832;BME280;52593;42.648;23.332;2022-11-20T13:33:30;93876.00;;;11.52;94.30
65832;BME280;52593;42.648;23.332;2022-11-20T13:36:05;93901.16;;;11.51;95.28
65832;BME280;52593;42.648;23.332;2022-11-20T13:38:46;93916.59;;;11.42;94.77
65832;BME280;52593;42.648;23.332;2022-11-20T13:41:23;93901.78;;;11.59;92.73
65832;BME280;52593;42.648;23.332;2022-11-20T13:43:59;93885.25;;;11.56;93.55
65832;BME280;52593;42.648;23.332;2022-11-20T13:46:46;93914.94;;;11.54;94.62
65832;BME280;52593;42.648;23.332;2022-11-20T13:49:18;93895.56;;;11.59;93.72
65832;BME280;52593;42.648;23.332;2022-11-20T13:51:48;93900.53;;;11.69;96.50
65832;BME280;52593;42.648;23.332;2022-11-20T13:59:39;93912.91;;;11.76;96.09
65832;BME280;52593;42.648;23.332;2022-11-20T14:02:14;93917.03;;;11.72;98.63
65832;BME280;52593;42.648;23.332;2022-11-20T14:04:47;93911.03;;;11.64;99.84
65832;BME280;52593;42.648;23.332;2022-11-20T14:07:14;93905.69;;;11.64;98.18
65832;BME280;52593;42.648;23.332;2022-11-20T14:09:50;93897.88;;;11.69;97.95
65832;BME280;52593;42.648;23.332;2022-11-20T14:12:18;93898.28;;;11.66;100.00
65832;BME280;52593;42.648;23.332;2022-11-20T14:14:52;93896.81;;;11.76;100.00
65832;BME280;52593;42.648;23.332;2022-11-20T14:19:47;93902.59;;;11.60;100.00